Time;durP1;ratioP1;P1;durP2;ratioP2;P2;SDS_P1;SDS_P2;PMS_P1;PMS_P2;Temp;Humidity;BMP_temperature;BMP_pressure;BME280_temperature;BME280_humidity;BME280_pressure;Samples;Min_cycle;Max_cycle;Signal;HPM_P1;HPM_P2
2023/01/13 00:01:06;;;;;;;6.47;2.30;;;10.50;99.90;;;;;;5092902;28;20467;-54
2023/01/13 00:03:34;;;;;;;1.67;1.57;;;10.50;99.90;;;;;;5091754;28;20471;-55
2023/01/13 00:06:01;;;;;;;1.40;1.30;;;10.50;99.90;;;;;;5093251;28;20477;-55
2023/01/13 00:08:28;;;;;;;2.47;1.70;;;10.50;99.90;;;;;;5092487;28;20842;-56
2023/01/13 00:10:55;;;;;;;1.70;1.37;;;10.50;99.90;;;;;;5091711;28;20554;-54
2023/01/13 00:13:25;;;;;;;1.97;1.40;;;10.60;99.90;;;;;;5092108;28;20926;-55
2023/01/13 00:15:56;;;;;;;3.10;1.30;;;10.60;99.90;;;;;;5092503;28;20929;-55
2023/01/13 00:18:26;;;;;;;1.50;1.40;;;10.60;99.90;;;;;;5091031;28;20790;-56
2023/01/13 00:20:59;;;;;;;2.30;1.80;;;10.60;99.90;;;;;;5092576;28;20463;-54
2023/01/13 00:23:28;;;;;;;1.40;1.30;;;10.50;99.90;;;;;;5092976;28;20464;-56
2023/01/13 00:25:56;;;;;;;3.20;1.53;;;10.50;99.90;;;;;;5090789;28;20439;-55
2023/01/13 00:28:23;;;;;;;1.97;1.60;;;10.50;99.90;;;;;;5092057;28;20447;-55
2023/01/13 00:30:51;;;;;;;2.40;1.70;;;10.50;99.90;;;;;;5092550;28;20478;-55
2023/01/13 00:33:18;;;;;;;2.03;1.60;;;10.50;99.90;;;;;;5090133;28;20542;-55
2023/01/13 00:35:56;;;;;;;4.63;1.37;;;10.50;99.90;;;;;;5092124;28;20475;-56
2023/01/13 00:38:23;;;;;;;5.70;1.70;;;10.50;99.90;;;;;;5092603;28;20455;-56
2023/01/13 00:40:56;;;;;;;2.37;1.50;;;10.50;99.90;;;;;;5092576;28;20781;-56
2023/01/13 00:43:22;;;;;;;2.53;1.60;;;10.50;99.90;;;;;;5096533;28;20551;-54
2023/01/13 00:45:50;;;;;;;2.33;1.40;;;10.50;99.90;;;;;;5096573;28;20811;-54
2023/01/13 00:48:17;;;;;;;3.23;1.80;;;10.50;99.90;;;;;;5093991;28;20627;-54
2023/01/13 00:50:46;;;;;;;2.17;1.80;;;10.50;99.90;;;;;;5096511;28;20467;-54
2023/01/13 00:53:15;;;;;;;2.80;1.60;;;10.50;99.90;;;;;;5096787;28;20860;-56
2023/01/13 00:55:42;;;;;;;2.40;1.40;;;10.50;99.90;;;;;;5094068;28;20948;-55
2023/01/13 00:58:09;;;;;;;2.17;1.60;;;10.50;99.90;;;;;;5096216;28;20443;-55
2023/01/13 01:00:37;;;;;;;1.50;1.40;;;10.50;99.90;;;;;;5096354;28;20782;-55
2023/01/13 01:03:07;;;;;;;3.57;1.60;;;10.60;99.90;;;;;;5094117;28;20486;-56
2023/01/13 01:05:34;;;;;;;1.40;1.30;;;10.60;99.90;;;;;;5095525;28;20450;-55
2023/01/13 01:08:03;;;;;;;3.77;1.57;;;10.60;99.90;;;;;;5096205;28;20457;-56
2023/01/13 01:10:30;;;;;;;2.20;2.00;;;10.60;99.90;;;;;;5094270;28;20582;-55
2023/01/13 01:12:57;;;;;;;1.40;1.30;;;10.60;99.90;;;;;;5095985;28;20995;-55
2023/01/13 01:15:24;;;;;;;4.57;1.67;;;10.60;99.90;;;;;;5096091;28;20447;-56
2023/01/13 01:17:51;;;;;;;2.70;1.50;;;10.60;99.90;;;;;;5094162;28;20451;-55
2023/01/13 01:20:19;;;;;;;1.70;1.60;;;10.70;99.90;;;;;;5096185;28;20463;-55
2023/01/13 01:22:46;;;;;;;1.80;1.40;;;10.70;99.90;;;;;;5096000;28;20482;-54
2023/01/13 01:25:14;;;;;;;3.53;1.70;;;10.70;99.90;;;;;;5093756;28;20447;-56
2023/01/13 01:27:41;;;;;;;1.40;1.30;;;10.70;99.90;;;;;;5096252;28;20535;-55
2023/01/13 01:30:10;;;;;;;2.53;1.63;;;10.70;99.90;;;;;;5094539;28;20546;-55
2023/01/13 01:32:37;;;;;;;1.70;1.60;;;10.70;99.90;;;;;;5093931;28;20458;-55
2023/01/13 01:35:05;;;;;;;1.63;1.53;;;10.80;99.90;;;;;;5095821;28;20423;-54
2023/01/13 01:37:32;;;;;;;2.10;1.40;;;10.80;99.90;;;;;;5095415;28;20451;-55
2023/01/13 01:39:59;;;;;;;3.53;1.50;;;10.80;99.90;;;;;;5093289;28;20475;-55
2023/01/13 01:45:18;;;;;;;1.97;1.80;;;10.90;99.90;;;;;;5094778;28;20497;-56
2023/01/13 01:47:47;;;;;;;1.90;1.63;;;10.90;99.90;;;;;;5092829;28;20432;-55
2023/01/13 01:50:14;;;;;;;3.40;1.80;;;10.90;99.90;;;;;;5094713;28;20838;-54
2023/01/13 01:52:46;;;;;;;2.43;1.40;;;10.90;99.90;;;;;;5094865;28;20531;-54
2023/01/13 01:55:17;;;;;;;1.57;1.47;;;10.90;99.90;;;;;;5093477;28;20503;-54
2023/01/13 01:57:51;;;;;;;2.40;1.60;;;10.90;99.90;;;;;;5094961;28;20792;-56
2023/01/13 02:00:18;;;;;;;2.70;1.40;;;10.80;99.90;;;;;;5094922;28;20464;-55
2023/01/13 02:02:48;;;;;;;5.33;2.60;;;10.90;99.90;;;;;;5093503;28;20574;-55
2023/01/13 02:05:15;;;;;;;3.80;1.70;;;10.90;99.90;;;;;;5094724;28;20926;-55
2023/01/13 02:07:45;;;;;;;3.03;1.73;;;10.80;99.90;;;;;;5095008;28;20447;-54
2023/01/13 02:10:15;;;;;;;3.97;1.97;;;10.90;99.90;;;;;;5093332;28;20475;-56
2023/01/13 02:12:45;;;;;;;1.87;1.73;;;10.80;99.90;;;;;;5094774;28;20956;-56
2023/01/13 02:15:16;;;;;;;1.83;1.50;;;10.80;99.90;;;;;;5095655;28;20464;-56
2023/01/13 02:18:15;;;;;;;1.60;1.50;;;10.80;99.90;;;;;;5092984;28;20444;-55
2023/01/13 02:21:04;;;;;;;2.70;1.37;;;10.80;99.90;;;;;;5094646;28;20790;-55
2023/01/13 02:27:29;;;;;;;1.80;1.40;;;10.80;99.90;;;;;;5094035;28;20939;-55
2023/01/13 02:33:15;;;;;;;5.67;2.00;;;10.80;99.90;;;;;;5092433;28;20409;-55
2023/01/13 02:35:51;;;;;;;3.73;2.07;;;10.80;99.90;;;;;;5094604;28;20432;-56
2023/01/13 02:38:23;;;;;;;2.90;1.83;;;10.80;99.90;;;;;;5093840;28;20456;-54
2023/01/13 02:40:58;;;;;;;3.07;1.90;;;10.80;99.90;;;;;;5091403;28;20501;-55
2023/01/13 02:46:24;;;;;;;2.20;1.50;;;10.80;99.90;;;;;;5094234;28;20403;-56
2023/01/13 02:48:54;;;;;;;3.37;1.40;;;10.80;99.90;;;;;;5094339;28;20420;-54
2023/01/13 02:51:25;;;;;;;6.10;1.50;;;10.70;99.90;;;;;;5094548;28;20459;-55
2023/01/13 02:53:59;;;;;;;1.97;1.77;;;10.70;99.90;;;;;;5091971;28;20811;-55
2023/01/13 02:56:27;;;;;;;1.97;1.40;;;10.80;99.90;;;;;;5094134;28;20513;-54
2023/01/13 02:58:57;;;;;;;1.90;1.43;;;10.80;99.90;;;;;;5094525;28;20456;-55
2023/01/13 03:01:26;;;;;;;1.90;1.63;;;10.70;99.90;;;;;;5091642;28;20483;-56
2023/01/13 03:03:53;;;;;;;1.97;1.80;;;10.70;99.90;;;;;;5093717;28;20490;-55
2023/01/13 03:06:36;;;;;;;2.03;1.83;;;10.70;99.90;;;;;;5093212;28;20559;-54
2023/01/13 03:09:10;;;;;;;1.40;1.30;;;10.70;99.90;;;;;;5091942;28;20804;-54
2023/01/13 03:11:50;;;;;;;3.10;1.60;;;10.70;99.90;;;;;;5093680;28;20809;-55
2023/01/13 03:14:30;;;;;;;6.87;1.53;;;10.70;99.90;;;;;;5093755;28;20419;-55
2023/01/13 03:17:19;;;;;;;1.77;1.40;;;10.70;99.90;;;;;;5092035;28;20428;-56
2023/01/13 03:19:57;;;;;;;2.70;1.30;;;10.70;99.90;;;;;;5093795;28;20424;-55
2023/01/13 03:22:31;;;;;;;3.23;1.37;;;10.60;99.90;;;;;;5093037;28;20412;-55
2023/01/13 03:25:07;;;;;;;2.17;1.50;;;10.70;99.90;;;;;;5091748;28;20416;-55
2023/01/13 03:27:42;;;;;;;1.57;1.47;;;10.70;99.90;;;;;;5093128;28;20440;-55
2023/01/13 03:30:15;;;;;;;1.67;1.43;;;10.70;99.90;;;;;;5092244;28;20471;-56
2023/01/13 03:32:48;;;;;;;4.43;1.60;;;10.70;99.90;;;;;;5091223;28;20436;-55
2023/01/13 03:35:20;;;;;;;9.20;2.00;;;10.70;99.90;;;;;;5092942;28;20517;-56
2023/01/13 03:37:52;;;;;;;1.67;1.57;;;10.70;99.90;;;;;;5093275;28;20794;-55
2023/01/13 03:40:23;;;;;;;2.43;1.43;;;10.70;99.90;;;;;;5091534;28;20489;-55
2023/01/13 03:45:42;;;;;;;1.97;1.30;;;10.70;99.90;;;;;;5091293;28;20411;-54
2023/01/13 03:48:16;;;;;;;1.83;1.40;;;10.70;99.90;;;;;;5093061;28;20450;-55
2023/01/13 03:50:48;;;;;;;1.60;1.50;;;10.70;99.90;;;;;;5092485;28;20546;-55
2023/01/13 03:53:20;;;;;;;1.57;1.47;;;10.70;99.90;;;;;;5090524;28;20837;-55
2023/01/13 03:55:51;;;;;;;2.50;1.33;;;10.70;99.90;;;;;;5092864;28;20506;-55
2023/01/13 03:58:23;;;;;;;1.87;1.77;;;10.70;99.90;;;;;;5092675;28;20527;-54
2023/01/13 04:00:57;;;;;;;1.80;1.70;;;10.70;99.90;;;;;;5090949;28;20464;-55
2023/01/13 04:03:29;;;;;;;1.43;1.30;;;10.60;99.90;;;;;;5092767;28;20464;-54
2023/01/13 04:06:04;;;;;;;2.47;1.43;;;10.60;99.90;;;;;;5093192;28;20430;-55
2023/01/13 04:08:33;;;;;;;2.93;1.93;;;10.70;99.90;;;;;;5091079;28;20473;-55
2023/01/13 04:11:07;;;;;;;1.70;1.30;;;10.60;99.90;;;;;;5092425;28;20463;-55
2023/01/13 04:13:39;;;;;;;1.70;1.60;;;10.70;99.90;;;;;;5092538;28;20420;-55
2023/01/13 04:16:08;;;;;;;1.87;1.30;;;10.60;99.90;;;;;;5090928;28;20777;-55
2023/01/13 04:18:38;;;;;;;1.97;1.70;;;10.60;99.90;;;;;;5092379;28;20806;-55
2023/01/13 04:21:06;;;;;;;2.03;1.50;;;10.60;99.90;;;;;;5092877;28;20468;-54
2023/01/13 04:23:34;;;;;;;2.60;1.60;;;10.60;99.90;;;;;;5090775;28;20528;-55
2023/01/13 04:26:01;;;;;;;2.03;1.33;;;10.60;99.90;;;;;;5092667;28;20447;-55
2023/01/13 04:28:28;;;;;;;1.60;1.50;;;10.60;99.90;;;;;;5091948;28;20458;-55
2023/01/13 04:30:55;;;;;;;2.17;1.47;;;10.60;99.90;;;;;;5090795;28;20468;-55
2023/01/13 04:33:22;;;;;;;1.93;1.50;;;10.60;99.90;;;;;;5092203;28;20530;-56
2023/01/13 04:35:52;;;;;;;1.40;1.30;;;10.60;99.90;;;;;;5092723;28;20520;-54
2023/01/13 04:38:21;;;;;;;1.67;1.40;;;10.70;99.90;;;;;;5090485;28;20466;-54
2023/01/13 04:40:48;;;;;;;3.00;1.23;;;10.60;99.90;;;;;;5091507;28;20877;-54
2023/01/13 04:43:16;;;;;;;1.97;1.40;;;10.70;99.90;;;;;;5092385;28;20483;-56
2023/01/13 04:45:43;;;;;;;1.87;1.30;;;10.70;99.90;;;;;;5090414;28;20469;-56
2023/01/13 04:48:11;;;;;;;1.70;1.40;;;10.70;99.90;;;;;;5091766;28;20443;-54
2023/01/13 04:50:38;;;;;;;1.50;1.30;;;10.70;99.90;;;;;;5091377;28;20506;-56
2023/01/13 04:53:07;;;;;;;1.50;1.33;;;10.70;99.90;;;;;;5089558;28;20949;-56
2023/01/13 04:55:34;;;;;;;2.17;1.67;;;10.70;99.90;;;;;;5091569;28;20534;-55
2023/01/13 04:58:04;;;;;;;1.50;1.20;;;10.70;99.90;;;;;;5092556;28;20444;-56
2023/01/13 05:00:32;;;;;;;1.57;1.40;;;10.70;99.90;;;;;;5090197;28;20467;-56
2023/01/13 05:02:59;;;;;;;5.13;1.80;;;10.70;99.90;;;;;;5092380;28;20455;-55
2023/01/13 05:05:26;;;;;;;1.80;1.57;;;10.70;99.90;;;;;;5091946;28;20486;-56
2023/01/13 05:07:54;;;;;;;4.07;1.37;;;10.80;99.90;;;;;;5089268;28;20457;-56
2023/01/13 05:10:22;;;;;;;2.13;1.70;;;10.80;99.90;;;;;;5092408;28;20503;-55
2023/01/13 05:18:19;;;;;;;2.87;2.10;;;10.80;99.90;;;;;;5092308;28;20959;-55
2023/01/13 05:20:46;;;;;;;1.60;1.50;;;10.80;99.90;;;;;;5092428;28;20495;-56
2023/01/13 05:25:59;;;;;;;1.67;1.40;;;10.80;99.90;;;;;;5093643;28;20406;-55
2023/01/13 05:28:30;;;;;;;1.50;1.20;;;10.80;99.90;;;;;;5095925;28;20453;-56
2023/01/13 05:30:58;;;;;;;1.40;1.30;;;10.80;99.90;;;;;;5093212;28;20536;-55
2023/01/13 05:33:25;;;;;;;1.70;1.60;;;10.80;99.90;;;;;;5095995;28;20435;-56
2023/01/13 05:35:52;;;;;;;2.03;1.50;;;10.80;99.90;;;;;;5095891;28;20868;-56
2023/01/13 05:38:19;;;;;;;1.50;1.40;;;10.80;99.90;;;;;;5093133;28;20589;-55
2023/01/13 05:43:33;;;;;;;1.60;1.50;;;10.80;99.90;;;;;;5095331;28;20964;-55
2023/01/13 05:46:02;;;;;;;1.30;1.20;;;10.80;99.90;;;;;;5093485;28;20862;-55
2023/01/13 05:48:31;;;;;;;1.90;1.50;;;10.80;99.90;;;;;;5095683;28;20498;-56
2023/01/13 05:50:58;;;;;;;1.43;1.30;;;10.70;99.90;;;;;;5094959;28;20474;-55
2023/01/13 05:53:26;;;;;;;1.27;1.17;;;10.70;99.90;;;;;;5093303;28;20438;-56
2023/01/13 05:55:54;;;;;;;1.57;1.30;;;10.70;99.90;;;;;;5095037;28;20539;-56
2023/01/13 05:58:23;;;;;;;1.40;1.30;;;10.70;99.90;;;;;;5094747;28;20517;-56
2023/01/13 06:00:52;;;;;;;1.80;1.50;;;10.70;99.90;;;;;;5093127;28;20467;-56
2023/01/13 06:03:20;;;;;;;2.13;1.20;;;10.70;99.90;;;;;;5095147;28;20451;-55
2023/01/13 06:05:47;;;;;;;2.60;1.30;;;10.70;99.90;;;;;;5094976;28;20501;-55
2023/01/13 06:08:15;;;;;;;1.70;1.60;;;10.70;99.90;;;;;;5092559;28;20454;-55
2023/01/13 06:10:42;;;;;;;2.47;1.60;;;10.60;99.90;;;;;;5093862;28;20563;-56
2023/01/13 06:13:09;;;;;;;2.90;1.30;;;10.70;99.90;;;;;;5094558;28;20445;-55
2023/01/13 06:15:36;;;;;;;1.40;1.30;;;10.70;99.90;;;;;;5093074;28;20439;-56
2023/01/13 06:18:05;;;;;;;2.30;1.57;;;10.70;99.90;;;;;;5095037;28;20443;-57
2023/01/13 06:20:33;;;;;;;2.37;1.33;;;10.70;99.90;;;;;;5094679;28;20885;-56
2023/01/13 06:23:01;;;;;;;1.50;1.20;;;10.70;99.90;;;;;;5092803;28;20937;-56
2023/01/13 06:25:38;;;;;;;1.10;1.00;;;10.70;99.90;;;;;;5094293;28;20483;-56
2023/01/13 06:28:05;;;;;;;1.30;1.20;;;10.70;99.90;;;;;;5094721;28;20424;-56
2023/01/13 06:30:37;;;;;;;1.33;1.23;;;10.70;99.90;;;;;;5092798;28;20957;-56
2023/01/13 06:33:10;;;;;;;3.50;1.37;;;10.70;99.90;;;;;;5094423;28;20619;-55
2023/01/13 06:35:38;;;;;;;1.87;1.40;;;10.70;99.90;;;;;;5094652;28;20522;-56
2023/01/13 06:38:10;;;;;;;1.40;1.30;;;10.70;99.90;;;;;;5091810;28;20744;-56
2023/01/13 06:40:37;;;;;;;1.83;1.30;;;10.70;99.90;;;;;;5094458;28;20575;-56
2023/01/13 06:43:15;;;;;;;1.40;1.30;;;10.70;99.90;;;;;;5093712;28;20440;-56
2023/01/13 06:45:46;;;;;;;1.40;1.30;;;10.60;99.90;;;;;;5094011;28;20427;-56
2023/01/13 06:48:16;;;;;;;1.77;1.37;;;10.60;99.90;;;;;;5094089;28;20424;-55
2023/01/13 06:50:43;;;;;;;1.73;1.20;;;10.60;99.90;;;;;;5091902;28;20528;-56
2023/01/13 06:53:11;;;;;;;2.30;1.13;;;10.60;99.90;;;;;;5093679;28;20530;-56
2023/01/13 06:55:38;;;;;;;1.40;1.30;;;10.60;99.90;;;;;;5094323;28;20534;-55
2023/01/13 06:58:05;;;;;;;2.80;1.50;;;10.60;99.90;;;;;;5092168;28;20446;-55
2023/01/13 07:00:34;;;;;;;1.40;1.20;;;10.60;99.90;;;;;;5093170;28;20479;-56
2023/01/13 07:03:20;;;;;;;2.20;1.30;;;10.60;99.90;;;;;;5094116;28;20450;-56
2023/01/13 07:05:52;;;;;;;1.17;1.07;;;10.60;99.90;;;;;;5091894;28;20459;-55
2023/01/13 07:08:20;;;;;;;2.90;2.10;;;10.60;99.90;;;;;;5093688;28;20459;-55
2023/01/13 07:10:47;;;;;;;1.87;1.53;;;10.60;99.90;;;;;;5093661;28;20459;-56
2023/01/13 07:16:00;;;;;;;1.20;1.10;;;10.70;99.90;;;;;;5094034;28;20398;-56
2023/01/13 07:18:30;;;;;;;1.30;1.20;;;10.70;99.90;;;;;;5093559;28;20447;-56
2023/01/13 07:20:58;;;;;;;3.30;1.57;;;10.70;99.90;;;;;;5091243;28;20495;-56
2023/01/13 07:23:27;;;;;;;1.20;1.10;;;10.60;99.90;;;;;;5093149;28;20443;-56
2023/01/13 07:25:56;;;;;;;2.60;1.40;;;10.70;99.90;;;;;;5093244;28;20956;-55
2023/01/13 07:28:23;;;;;;;1.90;1.70;;;10.60;99.90;;;;;;5091125;28;20454;-55
2023/01/13 07:30:50;;;;;;;1.30;1.20;;;10.70;99.90;;;;;;5092913;28;20460;-55
2023/01/13 07:33:18;;;;;;;1.20;1.10;;;10.70;99.90;;;;;;5092975;28;20443;-56
2023/01/13 07:35:47;;;;;;;1.40;1.30;;;10.70;99.90;;;;;;5091137;28;20454;-56
2023/01/13 07:38:14;;;;;;;2.00;1.23;;;10.70;99.90;;;;;;5093307;28;20436;-55
2023/01/13 07:40:41;;;;;;;1.50;1.40;;;10.60;99.90;;;;;;5092494;28;20487;-56
2023/01/13 07:43:31;;;;;;;2.80;1.10;;;10.70;99.90;;;;;;5090368;28;20433;-55
2023/01/13 07:46:00;;;;;;;1.50;1.40;;;10.80;99.90;;;;;;5092946;28;20460;-55
2023/01/13 07:48:28;;;;;;;1.43;1.33;;;10.80;99.90;;;;;;5092321;28;20527;-56
2023/01/13 07:50:56;;;;;;;1.20;1.10;;;10.80;99.90;;;;;;5090849;28;20546;-56
2023/01/13 07:53:24;;;;;;;1.50;1.20;;;10.80;99.90;;;;;;5093180;28;20526;-56
2023/01/13 07:55:56;;;;;;;2.80;1.30;;;10.80;99.90;;;;;;5092457;28;20454;-55
2023/01/13 07:58:23;;;;;;;1.20;1.10;;;10.80;99.90;;;;;;5090466;28;20435;-56
2023/01/13 08:00:50;;;;;;;2.63;1.40;;;10.90;99.90;;;;;;5092965;28;20471;-56
2023/01/13 08:03:18;;;;;;;1.77;1.20;;;10.90;99.90;;;;;;5092427;28;20504;-56
2023/01/13 08:05:45;;;;;;;1.20;1.10;;;10.90;99.90;;;;;;5090662;28;20479;-56
2023/01/13 08:08:14;;;;;;;1.40;1.30;;;10.90;99.90;;;;;;5092418;28;20534;-55
2023/01/13 08:10:42;;;;;;;1.50;1.40;;;11.00;99.90;;;;;;5092676;28;20455;-56
2023/01/13 08:13:19;;;;;;;2.43;1.17;;;11.00;99.90;;;;;;5090791;28;20431;-56
2023/01/13 08:15:49;;;;;;;1.40;1.23;;;11.10;99.90;;;;;;5092138;28;20488;-56
2023/01/13 08:18:16;;;;;;;1.90;1.10;;;11.00;99.90;;;;;;5092280;28;20929;-56
2023/01/13 08:20:43;;;;;;;1.50;1.40;;;11.00;99.90;;;;;;5090572;28;20586;-57
2023/01/13 08:23:11;;;;;;;1.40;1.30;;;11.00;99.90;;;;;;5092371;28;20508;-57
2023/01/13 08:25:39;;;;;;;1.27;1.17;;;11.00;99.90;;;;;;5092591;28;20486;-56
2023/01/13 08:28:06;;;;;;;1.40;1.30;;;11.10;99.90;;;;;;5090318;28;20454;-57
2023/01/13 08:30:34;;;;;;;3.00;1.37;;;11.10;99.90;;;;;;5092381;28;20474;-56
2023/01/13 08:33:01;;;;;;;1.40;1.30;;;11.20;99.90;;;;;;5092608;28;20949;-57
2023/01/13 08:35:28;;;;;;;2.10;1.20;;;11.20;99.90;;;;;;5089624;28;20451;-56
2023/01/13 08:37:57;;;;;;;4.57;1.30;;;11.00;99.90;;;;;;5091980;28;20549;-56
2023/01/13 08:40:24;;;;;;;2.07;1.50;;;10.90;99.90;;;;;;5092785;28;20506;-56
2023/01/13 08:42:54;;;;;;;2.50;1.50;;;10.80;99.90;;;;;;5090149;28;20442;-56
2023/01/13 08:45:22;;;;;;;1.47;1.37;;;10.70;99.90;;;;;;5092589;28;20848;-56
2023/01/13 08:47:49;;;;;;;8.67;2.13;;;10.50;99.90;;;;;;5092679;28;20494;-56
2023/01/13 08:50:17;;;;;;;1.63;1.53;;;10.40;99.90;;;;;;5090017;28;20849;-56
2023/01/13 08:52:44;;;;;;;1.30;1.20;;;10.40;99.90;;;;;;5092559;28;20447;-57
2023/01/13 08:55:12;;;;;;;5.67;1.97;;;10.40;99.90;;;;;;5092558;28;20448;-56
2023/01/13 08:57:39;;;;;;;2.70;1.40;;;10.30;99.90;;;;;;5090140;28;20431;-57
2023/01/13 09:00:09;;;;;;;1.90;1.43;;;10.30;99.90;;;;;;5092430;28;20467;-57
2023/01/13 09:02:38;;;;;;;1.30;1.20;;;10.50;99.90;;;;;;5096324;28;20443;-57
2023/01/13 09:05:06;;;;;;;3.20;1.23;;;10.40;99.90;;;;;;5093786;28;20479;-56
2023/01/13 09:07:33;;;;;;;2.33;1.33;;;10.30;99.90;;;;;;5096239;28;20470;-57
2023/01/13 09:10:01;;;;;;;1.37;1.27;;;10.10;99.90;;;;;;5096002;28;20483;-57
2023/01/13 09:15:17;;;;;;;1.20;1.10;;;9.60;99.90;;;;;;5096138;28;20411;-54
2023/01/13 09:17:44;;;;;;;1.40;1.30;;;9.40;99.90;;;;;;5095900;28;20522;-54
2023/01/13 09:20:12;;;;;;;3.20;1.40;;;9.10;99.90;;;;;;5093776;28;20574;-56
2023/01/13 09:22:40;;;;;;;1.97;1.20;;;9.00;99.90;;;;;;5096209;28;20497;-56
2023/01/13 09:25:08;;;;;;;1.30;1.20;;;8.80;99.90;;;;;;5095432;28;20479;-52
2023/01/13 09:27:35;;;;;;;1.60;1.10;;;8.80;99.90;;;;;;5093478;28;20922;-55
2023/01/13 09:30:03;;;;;;;1.20;1.10;;;8.80;99.90;;;;;;5095586;28;20467;-55
2023/01/13 09:32:31;;;;;;;1.10;1.00;;;8.80;99.90;;;;;;5095694;28;20447;-55
2023/01/13 09:35:01;;;;;;;1.20;1.10;;;8.80;99.90;;;;;;5093620;28;20530;-56
2023/01/13 09:37:29;;;;;;;1.67;1.20;;;8.90;99.90;;;;;;5095471;28;20529;-55
2023/01/13 09:39:56;;;;;;;1.40;1.20;;;9.00;99.90;;;;;;5095362;28;20482;-55
2023/01/13 09:45:25;;;;;;;1.33;1.17;;;9.20;99.90;;;;;;5095443;28;20654;-58
2023/01/13 09:48:01;;;;;;;1.40;1.30;;;9.40;99.90;;;;;;5094860;28;20997;-59
2023/01/13 09:50:37;;;;;;;1.20;1.00;;;9.60;99.90;;;;;;5093468;28;20463;-56
2023/01/13 09:53:07;;;;;;;1.33;1.10;;;9.70;99.90;;;;;;5095314;28;20459;-55
2023/01/13 09:55:36;;;;;;;1.30;1.20;;;9.60;99.90;;;;;;5094272;28;20450;-55
2023/01/13 09:58:11;;;;;;;1.30;1.20;;;9.70;99.90;;;;;;5095233;28;20888;-54
2023/01/13 10:00:45;;;;;;;1.60;1.20;;;9.70;99.90;;;;;;5094953;28;20542;-54
2023/01/13 10:03:26;;;;;;;1.30;1.20;;;9.60;99.90;;;;;;5092860;28;20434;-53
2023/01/13 10:05:57;;;;;;;1.40;1.30;;;9.70;99.90;;;;;;5095216;28;20466;-53
2023/01/13 10:08:28;;;;;;;1.53;1.20;;;9.60;99.90;;;;;;5094480;28;21035;-55
2023/01/13 10:10:57;;;;;;;1.73;1.60;;;9.70;99.90;;;;;;5093107;28;20499;-54
2023/01/13 10:13:26;;;;;;;1.83;1.40;;;9.50;99.90;;;;;;5094652;28;20456;-55
2023/01/13 10:16:03;;;;;;;1.40;1.20;;;9.40;99.90;;;;;;5094917;28;20501;-52
2023/01/13 10:18:41;;;;;;;1.20;1.10;;;9.30;99.90;;;;;;5092662;28;20885;-53
2023/01/13 10:21:25;;;;;;;1.73;1.30;;;9.30;99.90;;;;;;5094311;28;20550;-53
2023/01/13 10:24:02;;;;;;;1.60;1.50;;;9.40;99.90;;;;;;5094493;28;20428;-56
2023/01/13 10:26:47;;;;;;;1.30;1.20;;;9.40;99.90;;;;;;5092484;28;20463;-57
2023/01/13 10:29:24;;;;;;;4.27;1.20;;;9.40;99.90;;;;;;5094184;28;20450;-58
2023/01/13 10:31:53;;;;;;;2.53;1.60;;;9.40;99.90;;;;;;5094284;28;20475;-55
2023/01/13 10:34:22;;;;;;;1.30;1.20;;;9.50;99.90;;;;;;5092224;28;20451;-56
2023/01/13 10:37:00;;;;;;;1.30;1.20;;;9.50;99.90;;;;;;5094594;28;20497;-55
2023/01/13 10:39:27;;;;;;;1.40;1.30;;;9.60;99.90;;;;;;5094656;28;20809;-58
2023/01/13 10:42:02;;;;;;;5.63;1.50;;;9.70;99.90;;;;;;5091942;28;20510;-58
2023/01/13 10:44:30;;;;;;;4.07;1.40;;;9.80;99.90;;;;;;5094506;28;20521;-57
2023/01/13 10:46:59;;;;;;;2.37;1.10;;;10.00;99.90;;;;;;5094526;28;20455;-56
2023/01/13 10:49:31;;;;;;;3.73;1.30;;;9.80;99.90;;;;;;5091877;28;20858;-55
2023/01/13 10:52:00;;;;;;;1.60;1.30;;;9.70;99.90;;;;;;5094410;28;20432;-54
2023/01/13 10:54:28;;;;;;;1.97;1.40;;;9.50;99.90;;;;;;5093974;28;20946;-55
2023/01/13 10:57:18;;;;;;;2.27;1.50;;;9.60;99.90;;;;;;5091894;28;20531;-55
2023/01/13 10:59:46;;;;;;;2.73;1.70;;;9.40;99.90;;;;;;5093990;28;20511;-57
2023/01/13 11:02:25;;;;;;;1.43;1.17;;;9.30;99.90;;;;;;5092026;28;20486;-57
2023/01/13 11:05:18;;;;;;;2.80;1.40;;;9.40;99.90;;;;;;5093674;28;20431;-55
2023/01/13 11:07:49;;;;;;;1.83;1.63;;;9.30;99.90;;;;;;5093730;28;20404;-54
2023/01/13 11:10:23;;;;;;;1.40;1.30;;;9.20;99.90;;;;;;5091645;28;20507;-55
2023/01/13 11:12:58;;;;;;;4.10;1.50;;;9.20;99.90;;;;;;5093457;28;20453;-57
2023/01/13 11:15:36;;;;;;;2.83;1.27;;;9.20;99.90;;;;;;5093903;28;20427;-56
2023/01/13 11:18:08;;;;;;;2.70;1.20;;;8.90;99.90;;;;;;5091251;28;20427;-57
2023/01/13 11:20:40;;;;;;;1.47;1.10;;;8.90;99.90;;;;;;5093322;28;20558;-56
2023/01/13 11:23:15;;;;;;;1.40;1.30;;;8.90;99.90;;;;;;5092970;28;20742;-58
2023/01/13 11:25:46;;;;;;;8.63;1.50;;;8.90;99.90;;;;;;5091146;28;20489;-55
2023/01/13 11:28:31;;;;;;;1.83;1.47;;;8.90;99.90;;;;;;5093139;28;20487;-53
2023/01/13 11:31:05;;;;;;;1.50;1.40;;;8.90;99.90;;;;;;5093521;28;20838;-53
2023/01/13 11:33:40;;;;;;;1.30;1.20;;;8.90;99.90;;;;;;5091629;28;20431;-53
2023/01/13 11:36:14;;;;;;;1.37;1.27;;;8.80;99.90;;;;;;5093631;28;20427;-54
2023/01/13 11:38:47;;;;;;;1.73;1.50;;;8.80;99.90;;;;;;5093135;28;20459;-52
2023/01/13 11:41:25;;;;;;;2.47;1.80;;;8.60;99.90;;;;;;5090988;28;20510;-52
2023/01/13 11:43:59;;;;;;;1.87;1.60;;;8.60;99.90;;;;;;5092573;28;20451;-52
2023/01/13 11:46:28;;;;;;;2.13;1.93;;;8.60;99.90;;;;;;5093044;28;20526;-53
2023/01/13 11:48:56;;;;;;;2.80;1.37;;;8.50;99.90;;;;;;5091447;28;20509;-53
2023/01/13 11:51:34;;;;;;;1.83;1.40;;;8.70;99.90;;;;;;5092938;28;20818;-52
2023/01/13 11:54:21;;;;;;;1.77;1.40;;;8.80;99.90;;;;;;5091325;28;20460;-53
2023/01/13 11:57:22;;;;;;;2.03;1.53;;;8.90;99.90;;;;;;5092966;28;20948;-51
2023/01/13 12:00:18;;;;;;;2.30;1.33;;;9.10;99.90;;;;;;5092544;28;20841;-52
2023/01/13 12:02:53;;;;;;;1.73;1.20;;;9.00;99.90;;;;;;5087537;28;20451;-52
2023/01/13 12:05:29;;;;;;;1.47;1.30;;;9.20;99.90;;;;;;5093092;28;20467;-52
2023/01/13 12:08:10;;;;;;;2.07;1.53;;;9.80;99.90;;;;;;5092606;28;20461;-52
2023/01/13 12:10:53;;;;;;;1.60;1.50;;;10.00;99.90;;;;;;5090631;28;20478;-52
2023/01/13 12:13:31;;;;;;;1.40;1.30;;;9.80;99.90;;;;;;5093248;28;20411;-53
2023/01/13 12:16:22;;;;;;;1.53;1.43;;;9.90;99.90;;;;;;5092865;28;20430;-52
2023/01/13 12:19:10;;;;;;;1.80;1.30;;;9.90;99.90;;;;;;5095358;28;20488;-52
2023/01/13 12:21:41;;;;;;;8.00;1.60;;;9.60;99.90;;;;;;5112243;28;20952;-54
2023/01/13 12:24:18;;;;;;;4.03;1.50;;;9.40;99.90;;;;;;5111022;28;20426;-51
2023/01/13 12:26:53;;;;;;;3.63;2.37;;;9.40;99.90;;;;;;5112443;28;20478;-52
2023/01/13 12:29:29;;;;;;;5.40;2.10;;;9.50;99.90;;;;;;5112302;28;20411;-52
2023/01/13 12:31:59;;;;;;;2.97;2.00;;;9.70;99.90;;;;;;5110975;28;20429;-50
2023/01/13 12:34:34;;;;;;;4.80;3.17;;;9.80;99.90;;;;;;5113121;28;20442;-50
2023/01/13 12:37:12;;;;;;;4.50;2.10;;;10.00;99.90;;;;;;5116151;28;20423;-50
2023/01/13 12:39:50;;;;;;;3.33;2.40;;;10.30;99.90;;;;;;5115295;28;20450;-49
2023/01/13 12:45:27;;;;;;;2.70;1.77;;;10.40;99.90;;;;;;5117127;28;20513;-49
2023/01/13 12:47:54;;;;;;;5.50;2.23;;;10.10;99.90;;;;;;5114869;28;20826;-49
2023/01/13 12:50:42;;;;;;;4.17;2.00;;;10.10;99.90;;;;;;5117036;28;20453;-48
2023/01/13 12:53:37;;;;;;;7.13;3.90;;;10.20;99.90;;;;;;5116201;28;20433;-49
2023/01/13 12:56:39;;;;;;;3.23;2.00;;;10.20;99.90;;;;;;5097742;28;20496;-48
2023/01/13 12:59:47;;;;;;;8.60;1.87;;;10.40;99.90;;;;;;5097569;28;20474;-50
2023/01/13 13:02:38;;;;;;;13.23;2.93;;;10.10;99.90;;;;;;5106448;28;20461;-55
2023/01/13 13:05:41;;;;;;;4.33;2.17;;;9.90;99.90;;;;;;5101651;28;20466;-55
2023/01/13 13:08:18;;;;;;;7.10;2.00;;;9.90;99.90;;;;;;5100096;27;20462;-52
2023/01/13 13:10:57;;;;;;;7.63;2.17;;;10.10;99.90;;;;;;5098106;28;20459;-49
2023/01/13 13:13:41;;;;;;;3.37;1.87;;;9.90;99.90;;;;;;5096392;28;20445;-55
2023/01/13 13:16:46;;;;;;;4.03;2.10;;;10.00;99.90;;;;;;5096491;28;20453;-54
2023/01/13 13:19:44;;;;;;;8.70;2.73;;;10.00;99.90;;;;;;5083725;28;20455;-57
2023/01/13 13:22:36;;;;;;;3.13;1.60;;;10.20;99.90;;;;;;5079943;28;20551;-58
2023/01/13 13:25:26;;;;;;;2.23;1.70;;;10.30;99.90;;;;;;5095889;28;20918;-50
2023/01/13 13:28:23;;;;;;;2.87;1.70;;;10.40;99.90;;;;;;5095994;28;20798;-54
2023/01/13 13:31:05;;;;;;;2.87;2.07;;;10.70;99.90;;;;;;5085023;28;20467;-56
2023/01/13 13:33:47;;;;;;;3.53;1.90;;;11.20;99.90;;;;;;5095839;28;20431;-52
2023/01/13 13:36:33;;;;;;;5.00;1.93;;;11.60;99.90;;;;;;5096172;28;20546;-54
2023/01/13 13:47:42;;;;;;;5.10;2.00;;;11.00;99.90;;;;;;5096040;28;20459;-51
2023/01/13 13:50:14;;;;;;;8.70;2.10;;;11.20;99.90;;;;;;5096084;28;20551;-53
2023/01/13 13:52:50;;;;;;;6.13;2.00;;;10.90;99.90;;;;;;5095761;28;20439;-54
2023/01/13 13:55:19;;;;;;;2.23;1.67;;;11.00;99.90;;;;;;5095675;28;20519;-50
2023/01/13 13:57:49;;;;;;;7.10;1.80;;;10.80;99.90;;;;;;5095684;28;20527;-50
2023/01/13 14:00:23;;;;;;;2.83;1.80;;;10.50;99.90;;;;;;5095959;28;20955;-48
2023/01/13 14:02:57;;;;;;;4.73;2.00;;;10.50;99.90;;;;;;5096240;28;20424;-49